sensor_id;sensor_type;location;lat;lon;timestamp;temperature;humidity
18281;DHT22;9266;51.132;17.062;2023-05-10T00:02:09;9.00;1.00
18281;DHT22;9266;51.132;17.062;2023-05-10T00:04:36;8.90;1.00
18281;DHT22;9266;51.132;17.062;2023-05-10T00:07:03;8.90;1.00
18281;DHT22;9266;51.132;17.062;2023-05-10T00:09:31;8.90;1.00
18281;DHT22;9266;51.132;17.062;2023-05-10T00:11:58;8.80;1.00
18281;DHT22;9266;51.132;17.062;2023-05-10T00:14:25;8.80;1.00
18281;DHT22;9266;51.132;17.062;2023-05-10T00:16:52;8.80;1.00
18281;DHT22;9266;51.132;17.062;2023-05-10T00:19:20;8.80;1.00
18281;DHT22;9266;51.132;17.062;2023-05-10T00:21:46;8.70;1.00
18281;DHT22;9266;51.132;17.062;2023-05-10T00:24:14;8.60;1.00
18281;DHT22;9266;51.132;17.062;2023-05-10T00:26:42;8.60;1.00
18281;DHT22;9266;51.132;17.062;2023-05-10T00:29:09;7.50;1.00
18281;DHT22;9266;51.132;17.062;2023-05-10T00:31:36;8.50;1.00
18281;DHT22;9266;51.132;17.062;2023-05-10T00:34:03;8.50;1.00
18281;DHT22;9266;51.132;17.062;2023-05-10T00:36:30;8.50;24.80
18281;DHT22;9266;51.132;17.062;2023-05-10T00:38:57;8.40;99.90
18281;DHT22;9266;51.132;17.062;2023-05-10T00:41:24;8.40;99.90
18281;DHT22;9266;51.132;17.062;2023-05-10T00:43:52;8.30;99.90
18281;DHT22;9266;51.132;17.062;2023-05-10T00:46:19;8.30;99.90
18281;DHT22;9266;51.132;17.062;2023-05-10T00:48:47;8.20;99.90
18281;DHT22;9266;51.132;17.062;2023-05-10T00:51:14;8.20;99.90
18281;DHT22;9266;51.132;17.062;2023-05-10T00:53:41;8.20;1.00
18281;DHT22;9266;51.132;17.062;2023-05-10T00:56:09;8.20;1.00
18281;DHT22;9266;51.132;17.062;2023-05-10T00:58:36;8.10;1.00
18281;DHT22;9266;51.132;17.062;2023-05-10T01:01:05;8.10;1.00
18281;DHT22;9266;51.132;17.062;2023-05-10T01:03:33;8.00;1.00
18281;DHT22;9266;51.132;17.062;2023-05-10T01:06:00;8.00;1.00
18281;DHT22;9266;51.132;17.062;2023-05-10T01:08:27;7.90;1.00
18281;DHT22;9266;51.132;17.062;2023-05-10T01:10:54;7.90;1.00
18281;DHT22;9266;51.132;17.062;2023-05-10T01:13:31;7.90;1.00
18281;DHT22;9266;51.132;17.062;2023-05-10T01:16:00;7.80;1.00
18281;DHT22;9266;51.132;17.062;2023-05-10T01:18:31;7.80;21.40
18281;DHT22;9266;51.132;17.062;2023-05-10T01:21:08;7.80;99.90
18281;DHT22;9266;51.132;17.062;2023-05-10T01:24:11;7.80;99.90
18281;DHT22;9266;51.132;17.062;2023-05-10T01:27:02;7.70;99.90
18281;DHT22;9266;51.132;17.062;2023-05-10T01:29:58;7.70;99.90
18281;DHT22;9266;51.132;17.062;2023-05-10T01:32:33;7.60;99.90
18281;DHT22;9266;51.132;17.062;2023-05-10T01:35:05;7.60;99.90
18281;DHT22;9266;51.132;17.062;2023-05-10T01:37:40;7.60;1.00
18281;DHT22;9266;51.132;17.062;2023-05-10T01:40:14;7.60;1.00
18281;DHT22;9266;51.132;17.062;2023-05-10T01:42:49;7.60;1.00
18281;DHT22;9266;51.132;17.062;2023-05-10T01:45:24;7.50;1.00
18281;DHT22;9266;51.132;17.062;2023-05-10T01:48:02;7.50;1.00
18281;DHT22;9266;51.132;17.062;2023-05-10T01:50:31;7.50;1.00
18281;DHT22;9266;51.132;17.062;2023-05-10T01:53:00;7.50;1.00
18281;DHT22;9266;51.132;17.062;2023-05-10T01:55:30;7.50;1.00
18281;DHT22;9266;51.132;17.062;2023-05-10T01:58:02;7.50;1.00
18281;DHT22;9266;51.132;17.062;2023-05-10T02:00:31;7.40;1.00
18281;DHT22;9266;51.132;17.062;2023-05-10T02:03:01;7.40;1.00
18281;DHT22;9266;51.132;17.062;2023-05-10T02:05:32;7.40;1.00
18281;DHT22;9266;51.132;17.062;2023-05-10T02:08:00;7.40;1.00
18281;DHT22;9266;51.132;17.062;2023-05-10T02:10:28;7.40;1.00
18281;DHT22;9266;51.132;17.062;2023-05-10T02:12:58;7.30;23.60
18281;DHT22;9266;51.132;17.062;2023-05-10T02:15:26;7.30;22.50
18281;DHT22;9266;51.132;17.062;2023-05-10T02:17:55;7.30;99.90
18281;DHT22;9266;51.132;17.062;2023-05-10T02:20:25;7.30;99.90
18281;DHT22;9266;51.132;17.062;2023-05-10T02:22:54;7.30;99.90
18281;DHT22;9266;51.132;17.062;2023-05-10T02:25:23;7.30;99.90
18281;DHT22;9266;51.132;17.062;2023-05-10T02:27:51;7.30;99.90
18281;DHT22;9266;51.132;17.062;2023-05-10T02:30:21;7.30;99.90
18281;DHT22;9266;51.132;17.062;2023-05-10T02:32:49;7.30;99.90
18281;DHT22;9266;51.132;17.062;2023-05-10T02:35:17;7.30;99.90
18281;DHT22;9266;51.132;17.062;2023-05-10T02:37:47;7.30;99.90
18281;DHT22;9266;51.132;17.062;2023-05-10T02:40:15;7.20;99.90
18281;DHT22;9266;51.132;17.062;2023-05-10T02:42:44;7.20;99.90
18281;DHT22;9266;51.132;17.062;2023-05-10T02:45:14;7.30;99.90
18281;DHT22;9266;51.132;17.062;2023-05-10T02:47:42;7.30;99.90
18281;DHT22;9266;51.132;17.062;2023-05-10T02:50:09;7.20;99.90
18281;DHT22;9266;51.132;17.062;2023-05-10T02:52:41;7.20;99.90
18281;DHT22;9266;51.132;17.062;2023-05-10T02:55:13;7.20;99.90
18281;DHT22;9266;51.132;17.062;2023-05-10T02:57:43;7.20;99.90
18281;DHT22;9266;51.132;17.062;2023-05-10T03:00:12;7.20;99.90
18281;DHT22;9266;51.132;17.062;2023-05-10T03:02:39;7.20;99.90
18281;DHT22;9266;51.132;17.062;2023-05-10T03:05:06;7.20;1.00
18281;DHT22;9266;51.132;17.062;2023-05-10T03:07:34;7.20;1.00
18281;DHT22;9266;51.132;17.062;2023-05-10T03:10:01;7.20;1.00
18281;DHT22;9266;51.132;17.062;2023-05-10T03:12:40;7.20;1.00
18281;DHT22;9266;51.132;17.062;2023-05-10T03:15:13;7.20;1.00
18281;DHT22;9266;51.132;17.062;2023-05-10T03:17:48;7.20;1.00
18281;DHT22;9266;51.132;17.062;2023-05-10T03:20:24;7.20;1.00
18281;DHT22;9266;51.132;17.062;2023-05-10T03:22:56;7.20;1.00
18281;DHT22;9266;51.132;17.062;2023-05-10T03:25:29;7.20;1.00
18281;DHT22;9266;51.132;17.062;2023-05-10T03:28:01;7.20;1.00
18281;DHT22;9266;51.132;17.062;2023-05-10T03:30:28;7.20;1.00
18281;DHT22;9266;51.132;17.062;2023-05-10T03:32:56;7.40;1.00
18281;DHT22;9266;51.132;17.062;2023-05-10T03:35:23;7.40;99.90
18281;DHT22;9266;51.132;17.062;2023-05-10T03:37:51;7.80;99.90
18281;DHT22;9266;51.132;17.062;2023-05-10T03:40:17;8.30;1.00
18281;DHT22;9266;51.132;17.062;2023-05-10T03:42:44;8.80;99.90
18281;DHT22;9266;51.132;17.062;2023-05-10T03:45:13;9.30;1.00
18281;DHT22;9266;51.132;17.062;2023-05-10T03:47:40;9.70;1.00
18281;DHT22;9266;51.132;17.062;2023-05-10T03:50:08;10.10;99.90
18281;DHT22;9266;51.132;17.062;2023-05-10T03:52:35;10.60;54.20
18281;DHT22;9266;51.132;17.062;2023-05-10T03:55:05;10.80;1.00
18281;DHT22;9266;51.132;17.062;2023-05-10T03:57:33;11.20;1.00
18281;DHT22;9266;51.132;17.062;2023-05-10T04:00:01;11.60;1.00
18281;DHT22;9266;51.132;17.062;2023-05-10T04:02:29;11.90;1.00
18281;DHT22;9266;51.132;17.062;2023-05-10T04:04:56;12.00;1.00
18281;DHT22;9266;51.132;17.062;2023-05-10T04:07:23;12.30;1.00
18281;DHT22;9266;51.132;17.062;2023-05-10T04:09:50;12.50;1.00
18281;DHT22;9266;51.132;17.062;2023-05-10T04:12:17;12.60;1.00
18281;DHT22;9266;51.132;17.062;2023-05-10T04:14:44;13.00;1.00
18281;DHT22;9266;51.132;17.062;2023-05-10T04:17:11;13.40;99.90
18281;DHT22;9266;51.132;17.062;2023-05-10T04:19:40;13.60;99.90
18281;DHT22;9266;51.132;17.062;2023-05-10T04:22:07;14.00;99.90
18281;DHT22;9266;51.132;17.062;2023-05-10T04:24:34;14.00;99.90
18281;DHT22;9266;51.132;17.062;2023-05-10T04:27:01;14.30;99.90
18281;DHT22;9266;51.132;17.062;2023-05-10T04:29:28;14.60;99.90
18281;DHT22;9266;51.132;17.062;2023-05-10T04:31:55;14.70;99.90
18281;DHT22;9266;51.132;17.062;2023-05-10T04:34:23;14.70;99.90
18281;DHT22;9266;51.132;17.062;2023-05-10T04:36:51;15.10;99.90
18281;DHT22;9266;51.132;17.062;2023-05-10T04:39:18;15.30;89.40
18281;DHT22;9266;51.132;17.062;2023-05-10T04:41:45;15.40;84.20
18281;DHT22;9266;51.132;17.062;2023-05-10T04:44:12;16.00;90.50
18281;DHT22;9266;51.132;17.062;2023-05-10T04:46:39;16.40;29.00
18281;DHT22;9266;51.132;17.062;2023-05-10T04:49:06;17.00;1.00
18281;DHT22;9266;51.132;17.062;2023-05-10T04:51:33;17.10;1.00
18281;DHT22;9266;51.132;17.062;2023-05-10T04:54:02;16.90;1.00
18281;DHT22;9266;51.132;17.062;2023-05-10T04:56:29;16.80;1.00
18281;DHT22;9266;51.132;17.062;2023-05-10T04:58:56;17.10;1.00
18281;DHT22;9266;51.132;17.062;2023-05-10T05:01:23;17.20;1.00
18281;DHT22;9266;51.132;17.062;2023-05-10T05:03:50;17.30;1.00
18281;DHT22;9266;51.132;17.062;2023-05-10T05:06:18;17.50;1.00
18281;DHT22;9266;51.132;17.062;2023-05-10T05:08:46;17.40;1.00
18281;DHT22;9266;51.132;17.062;2023-05-10T05:11:16;17.50;1.00
18281;DHT22;9266;51.132;17.062;2023-05-10T05:13:43;18.00;1.00
18281;DHT22;9266;51.132;17.062;2023-05-10T05:16:10;17.80;1.00
18281;DHT22;9266;51.132;17.062;2023-05-10T05:18:37;17.90;1.00
18281;DHT22;9266;51.132;17.062;2023-05-10T05:21:13;17.60;1.00
18281;DHT22;9266;51.132;17.062;2023-05-10T05:23:41;17.60;1.00
18281;DHT22;9266;51.132;17.062;2023-05-10T05:26:09;18.10;1.00
18281;DHT22;9266;51.132;17.062;2023-05-10T05:28:37;18.70;1.00
18281;DHT22;9266;51.132;17.062;2023-05-10T05:31:04;18.50;1.00
18281;DHT22;9266;51.132;17.062;2023-05-10T05:33:33;18.50;1.00
18281;DHT22;9266;51.132;17.062;2023-05-10T05:36:00;18.60;1.00
18281;DHT22;9266;51.132;17.062;2023-05-10T05:38:27;18.50;1.00
18281;DHT22;9266;51.132;17.062;2023-05-10T05:40:54;18.50;1.00
18281;DHT22;9266;51.132;17.062;2023-05-10T05:43:22;18.90;1.00
18281;DHT22;9266;51.132;17.062;2023-05-10T05:45:52;19.60;1.00
18281;DHT22;9266;51.132;17.062;2023-05-10T05:48:19;19.40;1.00
18281;DHT22;9266;51.132;17.062;2023-05-10T05:50:47;20.10;1.00
18281;DHT22;9266;51.132;17.062;2023-05-10T05:53:14;19.80;1.00
18281;DHT22;9266;51.132;17.062;2023-05-10T05:55:51;18.60;1.00
18281;DHT22;9266;51.132;17.062;2023-05-10T05:58:18;18.40;1.00
18281;DHT22;9266;51.132;17.062;2023-05-10T06:00:45;18.40;1.00
18281;DHT22;9266;51.132;17.062;2023-05-10T06:03:14;19.20;1.00
18281;DHT22;9266;51.132;17.062;2023-05-10T06:05:41;19.40;1.00
18281;DHT22;9266;51.132;17.062;2023-05-10T06:08:08;19.10;1.00
18281;DHT22;9266;51.132;17.062;2023-05-10T06:10:35;19.30;1.00
18281;DHT22;9266;51.132;17.062;2023-05-10T06:13:02;18.60;1.00
18281;DHT22;9266;51.132;17.062;2023-05-10T06:15:29;18.70;1.00
18281;DHT22;9266;51.132;17.062;2023-05-10T06:17:56;19.00;1.00
18281;DHT22;9266;51.132;17.062;2023-05-10T06:20:25;19.10;1.00
18281;DHT22;9266;51.132;17.062;2023-05-10T06:22:52;19.40;1.00
18281;DHT22;9266;51.132;17.062;2023-05-10T06:25:19;20.00;1.00
18281;DHT22;9266;51.132;17.062;2023-05-10T06:27:46;19.70;1.00
18281;DHT22;9266;51.132;17.062;2023-05-10T06:30:13;19.50;1.00
18281;DHT22;9266;51.132;17.062;2023-05-10T06:32:41;19.90;1.00
18281;DHT22;9266;51.132;17.062;2023-05-10T06:35:09;19.50;1.00
18281;DHT22;9266;51.132;17.062;2023-05-10T06:37:38;19.70;1.00
18281;DHT22;9266;51.132;17.062;2023-05-10T06:40:06;19.80;1.00
18281;DHT22;9266;51.132;17.062;2023-05-10T06:42:34;19.90;1.00
18281;DHT22;9266;51.132;17.062;2023-05-10T06:45:01;20.30;1.00
18281;DHT22;9266;51.132;17.062;2023-05-10T06:47:28;20.40;1.00
18281;DHT22;9266;51.132;17.062;2023-05-10T06:49:55;20.80;1.00
18281;DHT22;9266;51.132;17.062;2023-05-10T06:52:22;20.70;1.00
18281;DHT22;9266;51.132;17.062;2023-05-10T06:54:51;21.40;1.00
18281;DHT22;9266;51.132;17.062;2023-05-10T06:57:18;21.10;1.00
18281;DHT22;9266;51.132;17.062;2023-05-10T06:59:46;20.80;1.00
18281;DHT22;9266;51.132;17.062;2023-05-10T07:02:13;20.60;1.00
18281;DHT22;9266;51.132;17.062;2023-05-10T07:04:40;20.30;1.00
18281;DHT22;9266;51.132;17.062;2023-05-10T07:07:07;19.90;1.00
18281;DHT22;9266;51.132;17.062;2023-05-10T07:09:35;19.90;1.00
18281;DHT22;9266;51.132;17.062;2023-05-10T07:12:04;19.80;1.00
18281;DHT22;9266;51.132;17.062;2023-05-10T07:14:31;19.90;1.00
18281;DHT22;9266;51.132;17.062;2023-05-10T07:16:58;20.30;1.00
18281;DHT22;9266;51.132;17.062;2023-05-10T07:19:25;20.80;1.00
18281;DHT22;9266;51.132;17.062;2023-05-10T07:21:52;20.70;1.00
18281;DHT22;9266;51.132;17.062;2023-05-10T07:24:19;20.40;1.00
18281;DHT22;9266;51.132;17.062;2023-05-10T07:26:46;20.80;1.00
18281;DHT22;9266;51.132;17.062;2023-05-10T07:29:14;20.90;1.00
18281;DHT22;9266;51.132;17.062;2023-05-10T07:31:41;21.00;1.00
18281;DHT22;9266;51.132;17.062;2023-05-10T07:34:08;20.40;1.00
18281;DHT22;9266;51.132;17.062;2023-05-10T07:36:35;19.90;1.00
18281;DHT22;9266;51.132;17.062;2023-05-10T07:39:02;20.50;1.00
18281;DHT22;9266;51.132;17.062;2023-05-10T07:41:29;20.80;1.00
18281;DHT22;9266;51.132;17.062;2023-05-10T07:43:57;20.80;1.00
18281;DHT22;9266;51.132;17.062;2023-05-10T07:46:25;20.80;1.00
18281;DHT22;9266;51.132;17.062;2023-05-10T07:48:52;20.70;1.00
18281;DHT22;9266;51.132;17.062;2023-05-10T07:51:19;20.70;1.00
18281;DHT22;9266;51.132;17.062;2023-05-10T07:53:46;20.40;1.00
18281;DHT22;9266;51.132;17.062;2023-05-10T07:56:21;20.30;1.00
18281;DHT22;9266;51.132;17.062;2023-05-10T07:58:48;20.30;1.00
18281;DHT22;9266;51.132;17.062;2023-05-10T08:01:15;20.50;1.00
18281;DHT22;9266;51.132;17.062;2023-05-10T08:03:43;20.70;1.00
18281;DHT22;9266;51.132;17.062;2023-05-10T08:06:10;20.90;1.00
18281;DHT22;9266;51.132;17.062;2023-05-10T08:08:38;21.20;1.00
18281;DHT22;9266;51.132;17.062;2023-05-10T08:11:05;21.10;1.00
18281;DHT22;9266;51.132;17.062;2023-05-10T08:13:32;20.90;1.00
18281;DHT22;9266;51.132;17.062;2023-05-10T08:15:59;20.50;1.00
18281;DHT22;9266;51.132;17.062;2023-05-10T08:18:26;20.70;1.00
18281;DHT22;9266;51.132;17.062;2023-05-10T08:20:55;20.80;1.00
18281;DHT22;9266;51.132;17.062;2023-05-10T08:23:22;21.10;1.00
18281;DHT22;9266;51.132;17.062;2023-05-10T08:25:49;21.40;1.00
18281;DHT22;9266;51.132;17.062;2023-05-10T08:28:16;21.80;1.00
18281;DHT22;9266;51.132;17.062;2023-05-10T08:30:43;22.00;1.00
18281;DHT22;9266;51.132;17.062;2023-05-10T08:33:10;21.30;1.00
18281;DHT22;9266;51.132;17.062;2023-05-10T08:35:38;20.70;1.00
18281;DHT22;9266;51.132;17.062;2023-05-10T08:38:06;20.90;1.00
18281;DHT22;9266;51.132;17.062;2023-05-10T08:40:34;20.60;1.00
18281;DHT22;9266;51.132;17.062;2023-05-10T08:43:05;20.70;1.00
18281;DHT22;9266;51.132;17.062;2023-05-10T08:45:33;20.60;1.00
18281;DHT22;9266;51.132;17.062;2023-05-10T08:48:02;20.20;1.00
18281;DHT22;9266;51.132;17.062;2023-05-10T08:50:31;20.70;1.00
18281;DHT22;9266;51.132;17.062;2023-05-10T08:53:00;20.90;1.00
18281;DHT22;9266;51.132;17.062;2023-05-10T08:55:32;21.40;1.00
18281;DHT22;9266;51.132;17.062;2023-05-10T08:57:59;21.50;1.00
18281;DHT22;9266;51.132;17.062;2023-05-10T09:00:27;20.90;1.00
18281;DHT22;9266;51.132;17.062;2023-05-10T09:02:55;20.50;1.00
18281;DHT22;9266;51.132;17.062;2023-05-10T09:05:22;20.50;1.00
18281;DHT22;9266;51.132;17.062;2023-05-10T09:07:49;20.60;1.00
18281;DHT22;9266;51.132;17.062;2023-05-10T09:10:17;20.40;1.00
18281;DHT22;9266;51.132;17.062;2023-05-10T09:12:46;20.50;1.00
18281;DHT22;9266;51.132;17.062;2023-05-10T09:15:15;20.70;1.00
18281;DHT22;9266;51.132;17.062;2023-05-10T09:17:42;20.40;1.00
18281;DHT22;9266;51.132;17.062;2023-05-10T09:20:10;20.20;1.00
18281;DHT22;9266;51.132;17.062;2023-05-10T09:22:37;20.00;1.00
18281;DHT22;9266;51.132;17.062;2023-05-10T09:25:07;19.60;1.00
18281;DHT22;9266;51.132;17.062;2023-05-10T09:27:35;19.20;1.00
18281;DHT22;9266;51.132;17.062;2023-05-10T09:30:05;19.20;1.00
18281;DHT22;9266;51.132;17.062;2023-05-10T09:32:39;19.10;1.00
18281;DHT22;9266;51.132;17.062;2023-05-10T09:35:08;19.10;1.00
18281;DHT22;9266;51.132;17.062;2023-05-10T09:37:35;19.30;1.00
18281;DHT22;9266;51.132;17.062;2023-05-10T09:40:05;19.30;1.00
18281;DHT22;9266;51.132;17.062;2023-05-10T09:42:33;19.10;1.00
18281;DHT22;9266;51.132;17.062;2023-05-10T09:45:04;19.20;1.00
18281;DHT22;9266;51.132;17.062;2023-05-10T09:47:32;19.40;1.00
18281;DHT22;9266;51.132;17.062;2023-05-10T09:50:00;19.60;1.00
18281;DHT22;9266;51.132;17.062;2023-05-10T09:52:30;19.70;1.00
18281;DHT22;9266;51.132;17.062;2023-05-10T09:54:57;19.80;1.00
18281;DHT22;9266;51.132;17.062;2023-05-10T09:57:24;19.60;1.00
18281;DHT22;9266;51.132;17.062;2023-05-10T09:59:52;19.40;1.00
18281;DHT22;9266;51.132;17.062;2023-05-10T10:02:28;19.30;1.00
18281;DHT22;9266;51.132;17.062;2023-05-10T10:04:55;19.50;1.00
18281;DHT22;9266;51.132;17.062;2023-05-10T10:07:23;19.50;1.00
18281;DHT22;9266;51.132;17.062;2023-05-10T10:09:53;19.50;1.00
18281;DHT22;9266;51.132;17.062;2023-05-10T10:12:20;19.40;1.00
18281;DHT22;9266;51.132;17.062;2023-05-10T10:14:47;19.20;1.00
18281;DHT22;9266;51.132;17.062;2023-05-10T10:17:16;19.20;1.00
18281;DHT22;9266;51.132;17.062;2023-05-10T10:19:45;19.30;1.00
18281;DHT22;9266;51.132;17.062;2023-05-10T10:22:12;19.30;1.00
18281;DHT22;9266;51.132;17.062;2023-05-10T10:24:39;19.30;1.00
18281;DHT22;9266;51.132;17.062;2023-05-10T10:27:19;19.50;1.00
18281;DHT22;9266;51.132;17.062;2023-05-10T10:29:52;19.70;1.00
18281;DHT22;9266;51.132;17.062;2023-05-10T10:32:30;19.90;1.00
18281;DHT22;9266;51.132;17.062;2023-05-10T10:35:01;20.80;1.00
18281;DHT22;9266;51.132;17.062;2023-05-10T10:37:43;20.20;1.00
18281;DHT22;9266;51.132;17.062;2023-05-10T10:40:25;20.20;1.00
18281;DHT22;9266;51.132;17.062;2023-05-10T10:42:52;20.40;1.00
18281;DHT22;9266;51.132;17.062;2023-05-10T10:45:21;20.40;1.00
18281;DHT22;9266;51.132;17.062;2023-05-10T10:47:48;20.30;1.00
18281;DHT22;9266;51.132;17.062;2023-05-10T10:50:18;20.40;1.00
18281;DHT22;9266;51.132;17.062;2023-05-10T10:52:46;20.40;1.00
18281;DHT22;9266;51.132;17.062;2023-05-10T10:55:17;20.40;1.00
18281;DHT22;9266;51.132;17.062;2023-05-10T10:57:48;20.30;1.00
18281;DHT22;9266;51.132;17.062;2023-05-10T11:00:22;20.30;1.00
18281;DHT22;9266;51.132;17.062;2023-05-10T11:02:50;20.30;1.00
18281;DHT22;9266;51.132;17.062;2023-05-10T11:05:37;20.40;1.00
18281;DHT22;9266;51.132;17.062;2023-05-10T11:08:10;20.60;1.00
18281;DHT22;9266;51.132;17.062;2023-05-10T11:10:38;20.70;1.00
18281;DHT22;9266;51.132;17.062;2023-05-10T11:13:09;20.80;1.00
18281;DHT22;9266;51.132;17.062;2023-05-10T11:15:37;20.70;1.00
18281;DHT22;9266;51.132;17.062;2023-05-10T11:18:17;20.80;1.00
18281;DHT22;9266;51.132;17.062;2023-05-10T11:20:50;20.50;1.00
18281;DHT22;9266;51.132;17.062;2023-05-10T11:23:17;20.70;1.00
18281;DHT22;9266;51.132;17.062;2023-05-10T11:25:48;20.30;1.00
18281;DHT22;9266;51.132;17.062;2023-05-10T11:28:17;20.20;1.00
18281;DHT22;9266;51.132;17.062;2023-05-10T11:30:45;20.00;1.00
18281;DHT22;9266;51.132;17.062;2023-05-10T11:33:16;20.20;1.00
18281;DHT22;9266;51.132;17.062;2023-05-10T11:35:43;20.40;1.00
18281;DHT22;9266;51.132;17.062;2023-05-10T11:38:13;20.50;1.00
18281;DHT22;9266;51.132;17.062;2023-05-10T11:40:40;20.80;1.00
18281;DHT22;9266;51.132;17.062;2023-05-10T11:43:09;21.00;1.00
18281;DHT22;9266;51.132;17.062;2023-05-10T11:45:37;21.00;1.00
18281;DHT22;9266;51.132;17.062;2023-05-10T11:48:05;21.20;1.00
18281;DHT22;9266;51.132;17.062;2023-05-10T11:50:32;21.00;1.00
18281;DHT22;9266;51.132;17.062;2023-05-10T11:52:59;20.90;1.00
18281;DHT22;9266;51.132;17.062;2023-05-10T11:55:27;21.00;1.00
18281;DHT22;9266;51.132;17.062;2023-05-10T11:58:00;20.80;1.00
18281;DHT22;9266;51.132;17.062;2023-05-10T12:00:28;20.70;1.00
18281;DHT22;9266;51.132;17.062;2023-05-10T12:02:55;20.80;1.00
18281;DHT22;9266;51.132;17.062;2023-05-10T12:05:25;21.10;1.00
18281;DHT22;9266;51.132;17.062;2023-05-10T12:07:52;21.00;1.00
18281;DHT22;9266;51.132;17.062;2023-05-10T12:10:27;20.90;1.00
18281;DHT22;9266;51.132;17.062;2023-05-10T12:12:53;21.00;1.00
18281;DHT22;9266;51.132;17.062;2023-05-10T12:15:22;21.00;1.00
18281;DHT22;9266;51.132;17.062;2023-05-10T12:17:49;21.10;1.00
18281;DHT22;9266;51.132;17.062;2023-05-10T12:20:18;21.20;1.00
18281;DHT22;9266;51.132;17.062;2023-05-10T12:22:49;21.10;1.00
18281;DHT22;9266;51.132;17.062;2023-05-10T12:25:17;21.30;1.00
18281;DHT22;9266;51.132;17.062;2023-05-10T12:27:56;21.30;1.00
18281;DHT22;9266;51.132;17.062;2023-05-10T12:30:24;21.10;1.00
18281;DHT22;9266;51.132;17.062;2023-05-10T12:32:51;20.70;1.00
18281;DHT22;9266;51.132;17.062;2023-05-10T12:35:19;20.80;1.00
18281;DHT22;9266;51.132;17.062;2023-05-10T12:37:48;20.60;1.00
18281;DHT22;9266;51.132;17.062;2023-05-10T12:40:15;20.60;1.00
18281;DHT22;9266;51.132;17.062;2023-05-10T12:42:42;20.60;1.00
18281;DHT22;9266;51.132;17.062;2023-05-10T12:45:12;20.50;1.00
18281;DHT22;9266;51.132;17.062;2023-05-10T12:47:39;20.50;1.00
18281;DHT22;9266;51.132;17.062;2023-05-10T12:50:07;20.40;1.00
18281;DHT22;9266;51.132;17.062;2023-05-10T12:52:35;20.40;1.00
18281;DHT22;9266;51.132;17.062;2023-05-10T12:55:02;20.60;1.00
18281;DHT22;9266;51.132;17.062;2023-05-10T12:57:29;20.60;1.00
18281;DHT22;9266;51.132;17.062;2023-05-10T12:59:57;20.50;1.00
18281;DHT22;9266;51.132;17.062;2023-05-10T13:02:25;20.60;1.00
18281;DHT22;9266;51.132;17.062;2023-05-10T13:04:53;20.60;1.00
18281;DHT22;9266;51.132;17.062;2023-05-10T13:07:21;20.40;1.00
18281;DHT22;9266;51.132;17.062;2023-05-10T13:09:49;20.70;1.00
18281;DHT22;9266;51.132;17.062;2023-05-10T13:12:17;19.60;1.00
18281;DHT22;9266;51.132;17.062;2023-05-10T13:14:44;21.10;1.00
18281;DHT22;9266;51.132;17.062;2023-05-10T13:17:12;20.70;1.00
18281;DHT22;9266;51.132;17.062;2023-05-10T13:19:41;20.50;1.00
18281;DHT22;9266;51.132;17.062;2023-05-10T13:22:08;20.60;1.00
18281;DHT22;9266;51.132;17.062;2023-05-10T13:24:35;20.60;1.00
18281;DHT22;9266;51.132;17.062;2023-05-10T13:27:03;20.50;1.00
18281;DHT22;9266;51.132;17.062;2023-05-10T13:29:30;20.60;1.00
18281;DHT22;9266;51.132;17.062;2023-05-10T13:31:58;20.80;1.00
18281;DHT22;9266;51.132;17.062;2023-05-10T13:34:26;20.90;1.00
18281;DHT22;9266;51.132;17.062;2023-05-10T13:36:55;21.10;1.00
18281;DHT22;9266;51.132;17.062;2023-05-10T13:39:22;21.30;1.00
18281;DHT22;9266;51.132;17.062;2023-05-10T13:41:50;21.40;1.00
18281;DHT22;9266;51.132;17.062;2023-05-10T13:44:17;21.40;1.00
18281;DHT22;9266;51.132;17.062;2023-05-10T13:46:44;21.50;1.00
18281;DHT22;9266;51.132;17.062;2023-05-10T13:49:12;21.80;1.00
18281;DHT22;9266;51.132;17.062;2023-05-10T13:51:39;21.60;1.00
18281;DHT22;9266;51.132;17.062;2023-05-10T13:54:10;21.60;1.00
18281;DHT22;9266;51.132;17.062;2023-05-10T13:56:37;21.90;1.00
18281;DHT22;9266;51.132;17.062;2023-05-10T13:59:05;21.50;1.00
18281;DHT22;9266;51.132;17.062;2023-05-10T14:01:33;21.60;1.00
18281;DHT22;9266;51.132;17.062;2023-05-10T14:04:00;21.80;1.00
18281;DHT22;9266;51.132;17.062;2023-05-10T14:06:27;21.60;1.00
18281;DHT22;9266;51.132;17.062;2023-05-10T14:08:54;21.50;1.00
18281;DHT22;9266;51.132;17.062;2023-05-10T14:11:24;21.50;1.00
18281;DHT22;9266;51.132;17.062;2023-05-10T14:13:51;21.50;1.00
18281;DHT22;9266;51.132;17.062;2023-05-10T14:16:19;21.30;1.00
18281;DHT22;9266;51.132;17.062;2023-05-10T14:18:46;21.10;1.00
18281;DHT22;9266;51.132;17.062;2023-05-10T14:21:13;21.00;1.00
18281;DHT22;9266;51.132;17.062;2023-05-10T14:23:41;20.80;1.00
18281;DHT22;9266;51.132;17.062;2023-05-10T14:26:08;20.70;1.00
18281;DHT22;9266;51.132;17.062;2023-05-10T14:28:37;20.60;1.00
18281;DHT22;9266;51.132;17.062;2023-05-10T14:31:04;20.80;1.00
18281;DHT22;9266;51.132;17.062;2023-05-10T14:33:31;19.90;1.00
18281;DHT22;9266;51.132;17.062;2023-05-10T14:35:58;20.90;1.00
18281;DHT22;9266;51.132;17.062;2023-05-10T14:38:26;21.00;1.00
18281;DHT22;9266;51.132;17.062;2023-05-10T14:40:54;21.10;1.00
18281;DHT22;9266;51.132;17.062;2023-05-10T14:43:21;21.00;1.00
18281;DHT22;9266;51.132;17.062;2023-05-10T14:45:49;21.10;1.00
18281;DHT22;9266;51.132;17.062;2023-05-10T14:48:16;21.20;1.00
18281;DHT22;9266;51.132;17.062;2023-05-10T14:50:44;21.00;1.00
18281;DHT22;9266;51.132;17.062;2023-05-10T14:53:12;21.10;1.00
18281;DHT22;9266;51.132;17.062;2023-05-10T14:55:39;21.50;1.00
18281;DHT22;9266;51.132;17.062;2023-05-10T14:58:06;21.70;1.00
18281;DHT22;9266;51.132;17.062;2023-05-10T15:00:33;21.80;1.00
18281;DHT22;9266;51.132;17.062;2023-05-10T15:03:03;21.80;1.00
18281;DHT22;9266;51.132;17.062;2023-05-10T15:05:30;21.60;1.00
18281;DHT22;9266;51.132;17.062;2023-05-10T15:08:03;22.70;1.00
18281;DHT22;9266;51.132;17.062;2023-05-10T15:10:30;21.30;1.00
18281;DHT22;9266;51.132;17.062;2023-05-10T15:12:58;21.10;1.00
18281;DHT22;9266;51.132;17.062;2023-05-10T15:15:25;20.90;1.00
18281;DHT22;9266;51.132;17.062;2023-05-10T15:17:53;21.00;1.00
18281;DHT22;9266;51.132;17.062;2023-05-10T15:20:22;20.80;1.00
18281;DHT22;9266;51.132;17.062;2023-05-10T15:22:49;21.00;1.00
18281;DHT22;9266;51.132;17.062;2023-05-10T15:25:16;21.00;1.00
18281;DHT22;9266;51.132;17.062;2023-05-10T15:27:43;20.70;1.00
18281;DHT22;9266;51.132;17.062;2023-05-10T15:30:12;20.70;1.00
18281;DHT22;9266;51.132;17.062;2023-05-10T15:32:39;20.70;1.00
18281;DHT22;9266;51.132;17.062;2023-05-10T15:35:07;20.70;1.00
18281;DHT22;9266;51.132;17.062;2023-05-10T15:37:37;20.70;1.00
18281;DHT22;9266;51.132;17.062;2023-05-10T15:40:05;20.80;1.00
18281;DHT22;9266;51.132;17.062;2023-05-10T15:42:32;20.90;1.00
18281;DHT22;9266;51.132;17.062;2023-05-10T15:45:00;20.90;1.00
18281;DHT22;9266;51.132;17.062;2023-05-10T15:47:29;20.80;1.00
18281;DHT22;9266;51.132;17.062;2023-05-10T15:49:57;20.90;1.00
18281;DHT22;9266;51.132;17.062;2023-05-10T15:52:24;20.90;1.00
18281;DHT22;9266;51.132;17.062;2023-05-10T15:54:53;20.80;1.00
18281;DHT22;9266;51.132;17.062;2023-05-10T15:57:21;20.70;1.00